Time;durP1;ratioP1;P1;durP2;ratioP2;P2;SDS_P1;SDS_P2;PMS_P1;PMS_P2;Temp;Humidity;BMP_temperature;BMP_pressure;BME280_temperature;BME280_humidity;BME280_pressure;Samples;Min_cycle;Max_cycle;Signal;HPM_P1;HPM_P2
2022/05/26 00:00:54;;;;;;;5.30;2.17;;;13.40;99.90;;;;;;4898443;29;20043;-79
2022/05/26 00:03:20;;;;;;;3.20;2.47;;;13.40;99.90;;;;;;4905727;29;20457;-81
2022/05/26 00:05:47;;;;;;;6.60;2.77;;;13.30;99.90;;;;;;4915688;28;20047;-80
2022/05/26 00:08:12;;;;;;;6.23;3.10;;;13.40;99.90;;;;;;4909022;29;20059;-80
2022/05/26 00:10:38;;;;;;;7.00;4.57;;;13.30;99.90;;;;;;4893359;29;20048;-80
2022/05/26 00:13:05;;;;;;;5.63;3.90;;;13.40;99.90;;;;;;4939360;29;20051;-80
2022/05/26 00:15:32;;;;;;;7.80;4.90;;;13.40;99.90;;;;;;4933880;29;20058;-81
2022/05/26 00:17:57;;;;;;;7.63;4.97;;;13.40;99.90;;;;;;4935035;29;20047;-81
2022/05/26 00:20:23;;;;;;;9.27;5.90;;;13.40;99.90;;;;;;4935359;29;20040;-80
2022/05/26 00:22:50;;;;;;;8.70;6.20;;;13.40;99.90;;;;;;4941202;29;20047;-80
2022/05/26 00:25:16;;;;;;;10.60;6.97;;;13.50;99.90;;;;;;4938771;29;20063;-79
2022/05/26 00:27:42;;;;;;;12.17;7.60;;;13.50;99.90;;;;;;4890597;29;20055;-79
2022/05/26 00:30:09;;;;;;;12.70;8.73;;;13.50;99.90;;;;;;4915301;29;20044;-79
2022/05/26 00:32:35;;;;;;;12.20;8.23;;;13.50;99.90;;;;;;4917658;29;20053;-80
2022/05/26 00:35:01;;;;;;;14.43;10.40;;;13.50;99.90;;;;;;4952716;29;20051;-80
2022/05/26 00:37:26;;;;;;;18.87;12.87;;;13.50;99.90;;;;;;4919194;29;20058;-79
2022/05/26 00:39:53;;;;;;;23.87;14.97;;;13.60;99.90;;;;;;4916618;29;20482;-79
2022/05/26 00:42:19;;;;;;;23.07;14.87;;;13.60;99.90;;;;;;4890216;29;20050;-80
2022/05/26 00:44:45;;;;;;;28.00;17.30;;;13.60;99.90;;;;;;4933758;29;20074;-80
2022/05/26 00:47:15;;;;;;;30.67;18.13;;;13.60;99.90;;;;;;4953197;28;20079;-79
2022/05/26 00:49:46;;;;;;;27.77;18.03;;;13.60;99.90;;;;;;4917079;29;20070;-80
2022/05/26 00:52:16;;;;;;;28.47;18.67;;;13.60;99.90;;;;;;4915500;29;20047;-80
2022/05/26 00:54:45;;;;;;;32.73;19.30;;;13.70;99.90;;;;;;4916953;29;20048;-80
2022/05/26 00:57:17;;;;;;;27.33;17.73;;;13.70;99.90;;;;;;4926058;29;20074;-79
2022/05/26 00:59:47;;;;;;;34.27;19.03;;;13.70;99.90;;;;;;4920576;29;20056;-80
2022/05/26 01:02:13;;;;;;;33.93;19.30;;;13.70;99.90;;;;;;4938681;29;20103;-80
2022/05/26 01:04:45;;;;;;;30.07;19.03;;;13.70;99.90;;;;;;4937415;29;20407;-79
2022/05/26 01:07:17;;;;;;;43.27;21.17;;;13.80;99.90;;;;;;4919917;29;20062;-78
2022/05/26 01:09:43;;;;;;;36.13;22.00;;;13.80;99.90;;;;;;4913067;29;20052;-80
2022/05/26 01:12:08;;;;;;;39.87;20.87;;;13.80;99.90;;;;;;4910528;29;20062;-80
2022/05/26 01:14:40;;;;;;;39.17;21.10;;;13.90;99.90;;;;;;4904795;29;20056;-82
2022/05/26 01:17:16;;;;;;;41.37;21.60;;;13.80;99.90;;;;;;4946577;23;20039;-80
2022/05/26 01:20:20;;;;;;;47.27;21.67;;;13.90;99.90;;;;;;4976622;28;20050;-79
2022/05/26 01:23:20;;;;;;;40.78;20.45;;;13.90;99.90;;;;;;4984297;28;20111;-79
2022/05/26 01:26:20;;;;;;;41.50;19.93;;;13.90;99.90;;;;;;4930641;28;20046;-79
2022/05/26 01:29:06;;;;;;;45.47;21.03;;;13.90;99.90;;;;;;4930067;28;20126;-80
2022/05/26 01:31:43;;;;;;;44.13;20.87;;;13.90;99.90;;;;;;4940248;28;20038;-79
2022/05/26 01:34:17;;;;;;;47.00;19.93;;;13.90;99.90;;;;;;4946292;28;20057;-80
2022/05/26 01:36:47;;;;;;;;;;;13.90;99.90;;;;;;4968623;28;20066;-79
2022/05/26 01:39:21;;;;;;;46.70;20.67;;;13.90;99.90;;;;;;4958586;28;19934;-79
2022/05/26 01:42:07;;;;;;;50.30;21.90;;;13.90;99.90;;;;;;4944360;28;20038;-79
2022/05/26 01:44:44;;;;;;;46.07;20.30;;;14.00;99.90;;;;;;4936993;28;20058;-79
2022/05/26 01:47:21;;;;;;;48.10;21.93;;;13.90;99.90;;;;;;4959199;28;20034;-78
2022/05/26 01:49:52;;;;;;;43.63;20.23;;;13.90;99.90;;;;;;4923600;29;20039;-79
2022/05/26 01:52:27;;;;;;;47.67;19.47;;;13.90;99.90;;;;;;4948636;28;20046;-80
2022/05/26 01:54:58;;;;;;;48.47;20.60;;;13.90;99.90;;;;;;4954229;28;20034;-79
2022/05/26 01:57:29;;;;;;;50.07;20.27;;;13.90;99.90;;;;;;4939043;28;20070;-80
2022/05/26 02:00:00;;;;;;;53.77;20.37;;;13.90;99.90;;;;;;4964423;28;20112;-80
2022/05/26 02:02:30;;;;;;;52.47;22.03;;;13.90;99.90;;;;;;4944818;28;20527;-80
2022/05/26 02:05:04;;;;;;;51.20;20.50;;;14.00;99.90;;;;;;4948509;28;20450;-80
2022/05/26 02:07:35;;;;;;;53.33;19.90;;;14.00;99.90;;;;;;4952985;28;20518;-79
2022/05/26 02:10:04;;;;;;;49.00;21.23;;;14.00;99.90;;;;;;4948568;28;20053;-81
2022/05/26 02:12:35;;;;;;;47.80;20.00;;;14.00;99.90;;;;;;4965923;28;20125;-79
2022/05/26 02:15:07;;;;;;;51.50;18.73;;;14.00;99.90;;;;;;4976117;28;20073;-79
2022/05/26 02:17:38;;;;;;;53.93;19.70;;;14.00;99.90;;;;;;4966969;28;20396;-80
2022/05/26 02:20:10;;;;;;;51.33;19.60;;;14.00;99.90;;;;;;4934262;28;20441;-79
2022/05/26 02:22:41;;;;;;;51.13;19.20;;;14.00;99.90;;;;;;4951694;28;20050;-81
2022/05/26 02:25:11;;;;;;;60.50;19.60;;;14.00;99.90;;;;;;4959555;28;20551;-80
2022/05/26 02:27:38;;;;;;;54.70;17.77;;;14.00;99.90;;;;;;4949202;28;20427;-80
2022/05/26 02:30:07;;;;;;;52.67;17.13;;;14.00;99.90;;;;;;4947838;28;20039;-79
2022/05/26 02:32:37;;;;;;;50.27;17.47;;;14.00;99.90;;;;;;4944270;28;20074;-80
2022/05/26 02:35:07;;;;;;;55.07;17.93;;;14.00;99.90;;;;;;4946133;28;20089;-80
2022/05/26 02:37:35;;;;;;;58.30;16.57;;;14.10;99.90;;;;;;4951177;28;20042;-79
2022/05/26 02:40:01;;;;;;;61.80;18.23;;;14.10;99.90;;;;;;4941132;28;20038;-80
2022/05/26 02:42:28;;;;;;;57.97;16.97;;;14.10;99.90;;;;;;4949385;28;20459;-79
2022/05/26 02:44:54;;;;;;;50.83;14.77;;;14.10;99.90;;;;;;4949402;28;20053;-80
2022/05/26 02:47:46;;;;;;;57.67;15.57;;;14.10;99.90;;;;;;4938533;28;20054;-80
2022/05/26 02:50:34;;;;;;;57.63;14.97;;;14.10;99.90;;;;;;4930245;28;20047;-79
2022/05/26 02:53:04;;;;;;;59.57;14.60;;;14.20;99.90;;;;;;4951192;28;20078;-80
2022/05/26 02:55:41;;;;;;;65.03;15.77;;;14.10;99.90;;;;;;4959340;28;20046;-81
2022/05/26 02:58:12;;;;;;;59.30;13.60;;;14.10;99.90;;;;;;4931300;28;20056;-79
2022/05/26 03:00:48;;;;;;;51.67;13.67;;;14.10;99.90;;;;;;4948442;28;20042;-80
2022/05/26 03:03:21;;;;;;;56.43;12.27;;;14.10;99.90;;;;;;4963662;28;20127;-81
2022/05/26 03:05:51;;;;;;;61.53;14.00;;;14.10;99.90;;;;;;4957811;28;20114;-80
2022/05/26 03:08:21;;;;;;;52.23;12.63;;;14.10;99.90;;;;;;4929466;28;20097;-80
2022/05/26 03:10:49;;;;;;;61.83;14.43;;;14.10;99.90;;;;;;4946415;28;20035;-79
2022/05/26 03:13:14;;;;;;;50.50;11.87;;;14.20;99.90;;;;;;4953845;28;20054;-80
2022/05/26 03:15:40;;;;;;;50.03;12.80;;;14.10;99.90;;;;;;4975162;28;20042;-79
2022/05/26 03:18:07;;;;;;;54.93;12.90;;;14.10;99.90;;;;;;4930814;28;20082;-81
2022/05/26 03:20:34;;;;;;;53.60;12.10;;;14.10;99.90;;;;;;4972329;28;20412;-79
2022/05/26 03:22:59;;;;;;;61.20;13.97;;;14.00;99.90;;;;;;4966774;28;20128;-80
2022/05/26 03:25:25;;;;;;;58.90;13.00;;;14.10;99.90;;;;;;4953626;28;20039;-80
2022/05/26 03:27:51;;;;;;;57.07;11.87;;;14.00;99.90;;;;;;4950280;28;20521;-81
2022/05/26 03:30:17;;;;;;;43.50;11.00;;;14.00;99.90;;;;;;4931740;28;20110;-79
2022/05/26 03:32:43;;;;;;;41.83;10.67;;;14.00;99.90;;;;;;4927404;28;20133;-80
2022/05/26 03:40:56;;;;;;;55.80;10.90;;;14.00;99.90;;;;;;4960412;28;20054;-80
2022/05/26 03:43:28;;;;;;;40.60;10.50;;;14.00;99.90;;;;;;4934290;28;20035;-79
2022/05/26 03:45:54;;;;;;;40.67;10.40;;;14.00;99.90;;;;;;4955750;28;20148;-80
2022/05/26 03:48:19;;;;;;;43.77;9.90;;;14.00;99.90;;;;;;4934564;28;20054;-80
2022/05/26 03:50:45;;;;;;;49.10;10.87;;;14.00;99.90;;;;;;4930151;28;20405;-79
2022/05/26 03:53:12;;;;;;;46.10;10.43;;;14.00;99.90;;;;;;4952440;28;20263;-79
2022/05/26 03:55:38;;;;;;;55.90;9.87;;;14.00;99.90;;;;;;4955784;28;20402;-80
2022/05/26 03:58:05;;;;;;;40.60;9.27;;;14.00;99.90;;;;;;4945637;28;20089;-79
2022/05/26 04:00:33;;;;;;;45.10;10.17;;;14.00;99.90;;;;;;4958445;28;20095;-79
2022/05/26 04:02:59;;;;;;;35.97;8.53;;;14.00;99.90;;;;;;4955735;28;20047;-78
2022/05/26 04:05:25;;;;;;;33.33;8.27;;;14.00;99.90;;;;;;4981931;28;20039;-79
2022/05/26 04:07:51;;;;;;;35.80;8.00;;;14.00;99.90;;;;;;4963374;28;20452;-80
2022/05/26 04:10:19;;;;;;;42.07;7.37;;;14.00;99.90;;;;;;4942201;28;20050;-79
2022/05/26 04:12:45;;;;;;;38.77;8.37;;;14.00;99.90;;;;;;4955855;28;20117;-79
2022/05/26 04:15:14;;;;;;;34.57;6.97;;;13.90;99.90;;;;;;4964403;28;20042;-79
2022/05/26 04:17:40;;;;;;;44.17;8.20;;;14.00;99.90;;;;;;4960225;28;20051;-80
2022/05/26 04:20:08;;;;;;;40.80;8.10;;;14.00;99.90;;;;;;4961562;28;20046;-79
2022/05/26 04:22:34;;;;;;;35.37;7.37;;;14.00;99.90;;;;;;4950514;28;20043;-79
2022/05/26 04:25:00;;;;;;;35.67;6.23;;;14.00;99.90;;;;;;4940601;28;20034;-80
2022/05/26 04:27:30;;;;;;;31.90;7.10;;;14.00;99.90;;;;;;4967935;28;20046;-80
2022/05/26 04:29:56;;;;;;;32.00;7.13;;;13.90;99.90;;;;;;4951527;28;20073;-81
2022/05/26 04:32:23;;;;;;;39.20;7.53;;;14.00;99.90;;;;;;4936856;28;20485;-80
2022/05/26 04:34:50;;;;;;;35.13;7.53;;;14.00;99.90;;;;;;4944624;28;20501;-81
2022/05/26 04:37:16;;;;;;;38.43;7.50;;;14.00;99.90;;;;;;4927408;28;20043;-79
2022/05/26 04:39:42;;;;;;;32.50;6.20;;;14.00;99.90;;;;;;4932171;28;20039;-80
2022/05/26 04:42:09;;;;;;;28.47;6.20;;;14.00;99.90;;;;;;4954425;28;20049;-79
2022/05/26 04:44:39;;;;;;;28.40;6.13;;;14.00;99.90;;;;;;4947072;28;20042;-80
2022/05/26 04:47:06;;;;;;;29.33;6.00;;;14.00;99.90;;;;;;4941262;28;20061;-79
2022/05/26 04:49:32;;;;;;;26.30;5.67;;;14.00;99.90;;;;;;4957984;28;20039;-80
2022/05/26 04:51:58;;;;;;;22.77;4.30;;;14.00;99.90;;;;;;4949377;28;20393;-80
2022/05/26 04:54:25;;;;;;;23.60;5.37;;;14.00;99.90;;;;;;4950356;28;20137;-79
2022/05/26 04:56:55;;;;;;;26.00;4.90;;;14.00;99.90;;;;;;4950663;28;20042;-79
2022/05/26 04:59:20;;;;;;;17.63;4.57;;;14.10;99.90;;;;;;4940506;28;20064;-80
2022/05/26 05:01:47;;;;;;;14.13;3.57;;;14.20;99.90;;;;;;4927880;28;20559;-79
2022/05/26 05:04:13;;;;;;;17.07;3.53;;;14.30;99.90;;;;;;4947811;28;20424;-80
2022/05/26 05:06:39;;;;;;;18.77;3.60;;;14.30;99.90;;;;;;4941268;28;20054;-81
2022/05/26 05:09:05;;;;;;;17.53;3.60;;;14.20;99.90;;;;;;4969431;28;20030;-78
2022/05/26 05:11:32;;;;;;;16.57;3.23;;;14.10;99.90;;;;;;4958221;28;20129;-78
2022/05/26 05:14:00;;;;;;;22.23;3.80;;;14.20;99.90;;;;;;4968651;28;20034;-79
2022/05/26 05:16:29;;;;;;;18.80;3.27;;;14.10;99.90;;;;;;4923350;28;20069;-78
2022/05/26 05:18:57;;;;;;;13.10;2.73;;;14.10;99.90;;;;;;4933062;28;20073;-80
2022/05/26 05:21:27;;;;;;;12.53;2.30;;;14.10;99.90;;;;;;4924097;29;20142;-79
2022/05/26 05:24:01;;;;;;;11.10;2.23;;;14.00;99.90;;;;;;4971114;28;20042;-79
2022/05/26 05:26:34;;;;;;;14.00;2.35;;;14.00;99.90;;;;;;4957948;28;20402;-79
2022/05/26 05:29:04;;;;;;;8.82;1.90;;;14.00;99.90;;;;;;4958724;28;20883;-80
2022/05/26 05:31:34;;;;;;;11.27;2.30;;;14.00;99.90;;;;;;4920835;29;20133;-80
2022/05/26 05:34:06;;;;;;;13.40;1.80;;;14.00;99.90;;;;;;4943936;28;20043;-80
2022/05/26 05:36:34;;;;;;;12.00;2.10;;;14.00;99.90;;;;;;4961993;28;20449;-80
2022/05/26 05:39:02;;;;;;;10.37;2.10;;;14.00;99.90;;;;;;4944693;28;20039;-79
2022/05/26 05:41:29;;;;;;;7.90;1.37;;;14.00;99.90;;;;;;4948901;28;20034;-82
2022/05/26 05:43:55;;;;;;;12.40;2.13;;;14.00;99.90;;;;;;4967603;28;20101;-80
2022/05/26 05:46:21;;;;;;;10.40;1.90;;;14.00;99.90;;;;;;4957802;28;20046;-80
2022/05/26 05:48:47;;;;;;;10.43;2.43;;;14.10;99.90;;;;;;4925145;28;20053;-78
2022/05/26 05:51:16;;;;;;;10.13;1.67;;;14.10;99.90;;;;;;4955426;28;20078;-79
2022/05/26 05:53:42;;;;;;;9.03;1.67;;;14.10;99.90;;;;;;4948948;28;20047;-80
2022/05/26 05:56:09;;;;;;;10.27;1.93;;;14.20;99.90;;;;;;4927560;28;20049;-80
2022/05/26 05:58:34;;;;;;;9.17;1.80;;;14.20;99.90;;;;;;4942136;28;20097;-79
2022/05/26 06:01:00;;;;;;;10.87;2.00;;;14.30;99.90;;;;;;4963261;28;20039;-81
2022/05/26 06:03:31;;;;;;;11.50;1.70;;;14.30;99.90;;;;;;4950289;28;20097;-80
2022/05/26 06:05:58;;;;;;;6.93;1.40;;;14.30;99.90;;;;;;4943029;28;20494;-80
2022/05/26 06:08:25;;;;;;;12.07;1.30;;;14.40;99.90;;;;;;4957729;28;20108;-80
2022/05/26 06:10:51;;;;;;;11.77;2.07;;;14.50;99.90;;;;;;4944607;28;20047;-78
2022/05/26 06:13:17;;;;;;;6.00;1.20;;;14.60;99.90;;;;;;4953097;28;20043;-80
2022/05/26 06:15:46;;;;;;;6.53;1.40;;;14.70;99.90;;;;;;4954149;28;20050;-79
2022/05/26 06:18:12;;;;;;;6.07;1.50;;;14.70;99.90;;;;;;4928016;28;20125;-80
2022/05/26 06:20:38;;;;;;;10.40;1.70;;;14.80;99.90;;;;;;4941092;28;20130;-79
2022/05/26 06:23:03;;;;;;;9.67;1.53;;;14.90;99.90;;;;;;4950168;28;20481;-78
2022/05/26 06:25:30;;;;;;;11.60;1.67;;;14.90;99.90;;;;;;4950957;28;20047;-80
2022/05/26 06:30:40;;;;;;;7.57;1.60;;;15.00;99.90;;;;;;4946935;28;20075;-80
2022/05/26 06:38:38;;;;;;;6.77;1.33;;;15.00;99.90;;;;;;4944398;28;20051;-80
2022/05/26 06:43:52;;;;;;;6.60;1.27;;;15.10;99.90;;;;;;4957742;28;20141;-80
2022/05/26 06:46:19;;;;;;;10.43;1.63;;;15.20;99.90;;;;;;4950029;28;20050;-79
2022/05/26 06:48:45;;;;;;;5.37;1.33;;;15.30;99.90;;;;;;4966016;28;20051;-79
2022/05/26 06:51:11;;;;;;;5.97;1.20;;;15.40;99.90;;;;;;4939671;28;20053;-79
2022/05/26 06:53:38;;;;;;;9.40;1.43;;;15.50;99.90;;;;;;4947366;28;20125;-80
2022/05/26 06:56:05;;;;;;;7.10;1.33;;;15.50;99.90;;;;;;4963685;28;20516;-80
2022/05/26 06:58:31;;;;;;;8.60;1.20;;;15.50;99.90;;;;;;4963009;28;20114;-81
2022/05/26 07:00:58;;;;;;;8.63;1.40;;;15.60;99.90;;;;;;4937084;28;20073;-81
2022/05/26 07:03:25;;;;;;;3.47;1.20;;;15.70;99.90;;;;;;4957810;28;20046;-80
2022/05/26 07:05:51;;;;;;;4.70;0.80;;;15.90;99.90;;;;;;4957642;28;20038;-80
2022/05/26 07:08:16;;;;;;;6.40;1.20;;;16.00;99.90;;;;;;4952484;28;20460;-80
2022/05/26 07:10:42;;;;;;;4.93;0.77;;;16.20;99.90;;;;;;4949603;28;20051;-81
2022/05/26 07:13:09;;;;;;;5.30;1.10;;;16.30;99.90;;;;;;4958676;28;20062;-80
2022/05/26 07:15:35;;;;;;;9.70;1.43;;;16.30;99.90;;;;;;4938828;28;20058;-79
2022/05/26 07:18:03;;;;;;;7.10;1.20;;;16.30;99.90;;;;;;4961181;28;20039;-80
2022/05/26 07:20:29;;;;;;;5.10;1.10;;;16.30;99.90;;;;;;4954536;28;20053;-80
2022/05/26 07:22:55;;;;;;;5.47;1.27;;;16.40;99.90;;;;;;4949065;28;20035;-80
2022/05/26 07:25:21;;;;;;;10.50;1.50;;;16.40;99.90;;;;;;4945783;28;20066;-79
2022/05/26 07:27:47;;;;;;;10.97;1.27;;;16.40;99.90;;;;;;4965215;28;20086;-80
2022/05/26 07:30:14;;;;;;;9.10;1.20;;;16.50;99.90;;;;;;4946405;28;20043;-82
2022/05/26 07:32:39;;;;;;;7.33;1.47;;;16.50;99.90;;;;;;4951406;28;20066;-79
2022/05/26 07:35:06;;;;;;;7.60;1.40;;;16.50;99.90;;;;;;4959118;28;20042;-80
2022/05/26 07:43:02;;;;;;;;;;;16.60;99.90;;;;;;4955204;28;20043;-80
2022/05/26 07:45:29;;;;;;;8.83;1.40;;;16.60;99.90;;;;;;4927933;28;20011;-80
2022/05/26 07:47:54;;;;;;;5.80;1.30;;;16.60;99.90;;;;;;4964688;28;20043;-80
2022/05/26 07:50:20;;;;;;;5.70;1.20;;;16.60;99.90;;;;;;4959203;28;20042;-80
2022/05/26 07:52:47;;;;;;;7.23;1.20;;;16.70;99.90;;;;;;4961813;28;20039;-80
2022/05/26 07:55:13;;;;;;;9.93;2.10;;;16.80;99.90;;;;;;4933451;28;20046;-79
2022/05/26 07:57:38;;;;;;;7.53;1.43;;;16.80;99.90;;;;;;4953655;28;20049;-79
2022/05/26 08:00:06;;;;;;;5.13;1.40;;;16.70;99.90;;;;;;4943594;28;20042;-79
2022/05/26 08:02:40;;;;;;;5.00;1.20;;;16.80;99.90;;;;;;4955676;28;20440;-80
2022/05/26 08:05:07;;;;;;;5.23;1.40;;;16.80;99.90;;;;;;4950462;28;20053;-81
2022/05/26 08:07:33;;;;;;;5.97;1.13;;;16.80;99.90;;;;;;4967303;28;20047;-81
2022/05/26 08:09:59;;;;;;;4.00;1.00;;;16.80;99.90;;;;;;4937937;28;20057;-80
2022/05/26 08:12:24;;;;;;;8.03;1.33;;;16.80;99.90;;;;;;4959323;28;20151;-81
2022/05/26 08:14:51;;;;;;;7.00;1.17;;;16.90;99.90;;;;;;4951113;28;20073;-85
2022/05/26 08:17:20;;;;;;;4.63;0.90;;;16.90;99.90;;;;;;4949214;28;20038;-82
2022/05/26 08:19:47;;;;;;;8.47;1.43;;;17.00;99.90;;;;;;4944421;28;20070;-79
2022/05/26 08:22:13;;;;;;;7.07;1.27;;;17.10;99.90;;;;;;4970378;28;20500;-81
2022/05/26 08:24:39;;;;;;;5.47;1.03;;;17.10;99.90;;;;;;4945728;28;20093;-81
2022/05/26 08:27:05;;;;;;;5.83;1.00;;;17.10;99.90;;;;;;4952060;28;20035;-80
2022/05/26 08:29:31;;;;;;;4.47;0.97;;;17.20;99.90;;;;;;4934006;28;20047;-80
2022/05/26 08:31:57;;;;;;;3.43;0.80;;;17.30;99.90;;;;;;4955398;28;20496;-81
2022/05/26 08:34:23;;;;;;;5.67;0.93;;;17.30;99.90;;;;;;4959752;28;20046;-80
2022/05/26 08:36:50;;;;;;;2.70;0.90;;;17.40;99.90;;;;;;4955272;28;20461;-81
2022/05/26 08:39:17;;;;;;;3.60;1.00;;;17.40;99.90;;;;;;4948591;28;20076;-82
2022/05/26 08:41:46;;;;;;;4.20;1.33;;;17.40;99.90;;;;;;4946346;28;20038;-82
2022/05/26 08:44:21;;;;;;;7.50;1.43;;;17.40;99.90;;;;;;4957478;28;20066;-82
2022/05/26 08:46:51;;;;;;;9.07;1.10;;;17.40;99.90;;;;;;4948815;28;20465;-83
2022/05/26 08:49:23;;;;;;;6.07;1.00;;;17.30;99.90;;;;;;4948056;28;20508;-81
2022/05/26 08:51:52;;;;;;;7.10;1.67;;;17.40;99.90;;;;;;4948646;28;20047;-83
2022/05/26 08:54:27;;;;;;;6.63;1.00;;;17.50;99.90;;;;;;4935811;29;20047;-81
2022/05/26 08:56:55;;;;;;;3.80;0.70;;;17.60;99.90;;;;;;4949007;28;20050;-82
2022/05/26 08:59:29;;;;;;;4.30;1.20;;;17.70;99.90;;;;;;4927154;28;20046;-82
2022/05/26 09:01:58;;;;;;;7.35;1.42;;;17.90;99.90;;;;;;4940698;28;20046;-81
2022/05/26 09:04:24;;;;;;;7.17;1.10;;;18.10;99.90;;;;;;4954189;28;20053;-79
2022/05/26 09:15:15;;;;;;;3.93;1.00;;;18.70;99.90;;;;;;4957500;28;20046;-80
2022/05/26 09:17:41;;;;;;;7.37;1.07;;;19.00;99.90;;;;;;4948838;28;20042;-80
2022/05/26 09:20:34;;;;;;;5.40;0.90;;;19.00;99.90;;;;;;4954481;28;20089;-81
2022/05/26 09:23:14;;;;;;;3.17;0.90;;;18.90;99.90;;;;;;4947531;28;20335;-83
2022/05/26 09:25:45;;;;;;;5.27;0.80;;;18.90;99.90;;;;;;4939881;28;20062;-80
2022/05/26 09:28:12;;;;;;;3.97;0.97;;;18.90;99.90;;;;;;4940447;28;20038;-80
2022/05/26 09:30:39;;;;;;;8.07;1.07;;;18.80;99.90;;;;;;4947742;28;20066;-83
2022/05/26 09:33:17;;;;;;;4.73;0.90;;;18.70;99.90;;;;;;4934446;28;20089;-79
2022/05/26 09:35:43;;;;;;;3.37;0.97;;;18.90;99.90;;;;;;4950344;28;20070;-81
2022/05/26 09:38:17;;;;;;;8.60;1.00;;;19.20;99.90;;;;;;4950897;28;20066;-79
2022/05/26 09:40:46;;;;;;;5.40;1.07;;;19.60;99.90;;;;;;4948717;28;20045;-81
2022/05/26 09:43:22;;;;;;;5.40;0.93;;;19.90;99.90;;;;;;4935106;28;20046;-79
2022/05/26 09:45:51;;;;;;;5.90;0.80;;;19.80;99.90;;;;;;4947080;28;20420;-80
2022/05/26 09:48:25;;;;;;;5.50;1.13;;;19.60;99.90;;;;;;4929717;28;20500;-79
2022/05/26 09:50:53;;;;;;;5.75;1.20;;;19.70;99.90;;;;;;4951210;28;20039;-78
2022/05/26 09:53:30;;;;;;;4.83;1.00;;;20.00;99.90;;;;;;4938471;28;20043;-78
2022/05/26 09:55:57;;;;;;;5.37;1.30;;;20.30;99.90;;;;;;4940145;28;20145;-80
2022/05/26 09:58:28;;;;;;;7.07;0.90;;;20.70;99.90;;;;;;4940000;28;20051;-79
2022/05/26 10:00:56;;;;;;;4.47;0.80;;;21.10;99.90;;;;;;4969430;28;20039;-79
2022/05/26 10:03:31;;;;;;;3.63;0.90;;;21.20;99.90;;;;;;4941756;28;20051;-80
2022/05/26 10:06:11;;;;;;;4.67;0.93;;;21.50;99.90;;;;;;4936024;28;20480;-80
2022/05/26 10:08:45;;;;;;;6.00;1.20;;;21.50;97.30;;;;;;4960520;28;20070;-80
2022/05/26 10:11:15;;;;;;;3.20;1.03;;;21.20;96.50;;;;;;4925715;28;20142;-79
2022/05/26 10:13:58;;;;;;;4.17;0.90;;;20.90;96.00;;;;;;4952269;28;20561;-80
2022/05/26 10:16:32;;;;;;;2.75;0.80;;;20.90;96.70;;;;;;4937485;28;20073;-79
2022/05/26 10:19:08;;;;;;;3.50;0.90;;;20.60;96.40;;;;;;4969192;28;20110;-80
2022/05/26 10:21:50;;;;;;;4.97;0.90;;;20.20;95.20;;;;;;4944850;28;20046;-80
2022/05/26 10:24:52;;;;;;;5.10;1.03;;;19.70;96.50;;;;;;4953243;28;20049;-78
2022/05/26 10:27:27;;;;;;;3.23;0.93;;;19.30;98.20;;;;;;4973180;28;20381;-79
2022/05/26 10:30:18;;;;;;;5.27;0.80;;;19.50;99.10;;;;;;4973041;28;20133;-79
2022/05/26 10:32:54;;;;;;;5.67;1.00;;;19.60;99.60;;;;;;4944750;28;20046;-78
2022/05/26 10:35:26;;;;;;;6.57;1.00;;;19.90;99.90;;;;;;4943384;28;20046;-79
2022/05/26 10:38:15;;;;;;;4.70;1.20;;;20.10;99.40;;;;;;4947643;28;20109;-80
2022/05/26 10:40:49;;;;;;;4.50;0.73;;;20.20;99.90;;;;;;4949002;28;20069;-79
2022/05/26 10:43:21;;;;;;;5.13;0.87;;;20.50;99.90;;;;;;4940857;28;20054;-80
2022/05/26 10:45:48;;;;;;;5.87;1.10;;;20.30;98.10;;;;;;4965522;28;20042;-78
2022/05/26 10:48:20;;;;;;;4.70;1.00;;;20.40;99.90;;;;;;4950735;28;20290;-82
2022/05/26 10:50:50;;;;;;;3.20;0.90;;;20.70;99.90;;;;;;4943326;28;20508;-79
2022/05/26 10:53:23;;;;;;;6.00;1.10;;;21.00;99.90;;;;;;4926442;28;20039;-79
2022/05/26 10:55:57;;;;;;;5.28;0.85;;;20.80;99.50;;;;;;4968223;28;20046;-79
2022/05/26 10:58:29;;;;;;;5.37;1.30;;;20.20;98.70;;;;;;4946127;28;20055;-79
2022/05/26 11:01:01;;;;;;;3.88;1.00;;;19.60;99.60;;;;;;4951635;28;20141;-79
2022/05/26 11:03:35;;;;;;;5.90;1.77;;;19.10;99.90;;;;;;4956994;28;20045;-80
2022/05/26 11:06:07;;;;;;;4.33;1.27;;;18.70;99.90;;;;;;4948357;28;20121;-79
2022/05/26 11:08:38;;;;;;;5.07;1.07;;;18.30;99.90;;;;;;4933333;28;20038;-79
2022/05/26 11:11:12;;;;;;;4.57;1.30;;;18.10;99.90;;;;;;4943930;28;20045;-80
2022/05/26 11:13:45;;;;;;;3.47;1.10;;;18.20;99.90;;;;;;4950697;28;20069;-80
2022/05/26 11:19:16;;;;;;;5.13;1.10;;;19.60;99.90;;;;;;4955567;28;20055;-79
2022/05/26 11:21:42;;;;;;;5.30;1.10;;;19.90;99.90;;;;;;4976400;28;20051;-78
2022/05/26 11:24:09;;;;;;;6.23;1.20;;;19.70;99.90;;;;;;4941554;28;20066;-79
2022/05/26 11:26:41;;;;;;;6.10;1.40;;;19.50;99.90;;;;;;4952843;28;20042;-80
2022/05/26 11:29:12;;;;;;;5.53;1.80;;;19.40;99.90;;;;;;4955175;28;20048;-79
2022/05/26 11:37:28;;;;;;;6.35;1.20;;;19.10;99.90;;;;;;4960363;28;20118;-79
2022/05/26 11:39:57;;;;;;;6.77;1.40;;;18.80;99.90;;;;;;4976319;28;20090;-79
2022/05/26 11:42:31;;;;;;;7.13;1.30;;;19.00;99.90;;;;;;4945664;28;20047;-79
2022/05/26 11:45:16;;;;;;;8.67;1.37;;;19.10;99.90;;;;;;4960928;28;20524;-85
2022/05/26 11:47:52;;;;;;;4.87;1.20;;;19.10;99.90;;;;;;4944294;28;20043;-79
2022/05/26 11:50:27;;;;;;;5.33;1.40;;;18.80;99.90;;;;;;4960197;28;20049;-80
2022/05/26 11:53:05;;;;;;;5.47;1.00;;;18.50;99.90;;;;;;4947487;28;20039;-77
2022/05/26 11:55:44;;;;;;;7.07;1.73;;;18.50;99.90;;;;;;4940878;28;20097;-79
2022/05/26 11:58:25;;;;;;;6.43;1.07;;;19.00;99.90;;;;;;4958474;28;20050;-78
2022/05/26 12:01:10;;;;;;;8.43;1.47;;;19.40;99.90;;;;;;4950060;28;20054;-79
2022/05/26 12:03:48;;;;;;;7.50;1.40;;;19.30;99.90;;;;;;4966936;28;20056;-79
2022/05/26 12:06:25;;;;;;;3.27;0.80;;;19.10;99.90;;;;;;4966577;28;20042;-78
2022/05/26 12:09:00;;;;;;;15.13;2.10;;;19.00;99.90;;;;;;4935633;28;20047;-81
2022/05/26 12:11:52;;;;;;;6.40;1.30;;;18.70;99.90;;;;;;4935995;28;20051;-77
2022/05/26 12:14:23;;;;;;;4.87;1.17;;;18.80;99.90;;;;;;4939443;28;20094;-77
2022/05/26 12:16:49;;;;;;;7.00;1.30;;;19.00;99.90;;;;;;4939131;28;20081;-82
2022/05/26 12:19:40;;;;;;;5.63;1.30;;;19.20;99.90;;;;;;4945662;28;20475;-79
2022/05/26 12:22:22;;;;;;;4.57;1.10;;;19.70;99.90;;;;;;4938366;28;20043;-78
2022/05/26 12:25:06;;;;;;;5.97;1.50;;;20.20;99.90;;;;;;4977606;28;20042;-79
2022/05/26 12:28:01;;;;;;;7.00;1.25;;;20.40;99.90;;;;;;4963537;28;20070;-79
2022/05/26 12:30:41;;;;;;;7.73;1.13;;;21.00;99.90;;;;;;4946134;28;20046;-79
2022/05/26 12:33:31;;;;;;;5.67;1.43;;;21.30;98.50;;;;;;4937719;28;20147;-79
2022/05/26 12:36:06;;;;;;;5.47;1.10;;;21.00;97.90;;;;;;4948876;28;20059;-79
2022/05/26 12:38:41;;;;;;;8.40;1.37;;;20.80;97.70;;;;;;4942643;28;20050;-78
2022/05/26 12:41:14;;;;;;;5.30;1.20;;;20.60;97.60;;;;;;4982113;28;20046;-81
2022/05/26 12:43:59;;;;;;;4.93;1.05;;;20.40;98.60;;;;;;4955304;28;20050;-79
2022/05/26 12:46:47;;;;;;;5.53;1.20;;;20.30;99.30;;;;;;4947000;28;20489;-81
2022/05/26 12:49:31;;;;;;;5.57;1.00;;;20.30;99.50;;;;;;4948750;28;20089;-79
2022/05/26 12:52:08;;;;;;;8.65;1.50;;;20.40;99.80;;;;;;4953191;28;20046;-77
2022/05/26 12:54:43;;;;;;;5.77;0.97;;;20.40;99.70;;;;;;4977564;28;20050;-80
2022/05/26 12:57:11;;;;;;;7.00;1.63;;;20.30;99.90;;;;;;4938444;28;20035;-79
2022/05/26 12:59:37;;;;;;;7.17;1.83;;;20.40;99.90;;;;;;4949518;28;20110;-79
2022/05/26 13:02:05;;;;;;;7.87;1.60;;;20.30;99.30;;;;;;4964679;28;20066;-81
2022/05/26 13:04:35;;;;;;;6.40;1.60;;;20.10;99.90;;;;;;4941728;28;20050;-80
2022/05/26 13:07:06;;;;;;;8.83;1.63;;;20.00;99.90;;;;;;4966259;28;20042;-79
2022/05/26 13:09:39;;;;;;;7.53;1.50;;;20.00;99.90;;;;;;4947925;28;20082;-78
2022/05/26 13:12:06;;;;;;;7.13;1.55;;;20.10;99.90;;;;;;4966664;28;20105;-76
2022/05/26 13:14:36;;;;;;;7.57;1.70;;;20.20;99.90;;;;;;4943015;28;20078;-78
2022/05/26 13:17:04;;;;;;;8.50;1.53;;;20.30;99.90;;;;;;4954720;28;20047;-78
2022/05/26 13:19:31;;;;;;;8.97;1.87;;;20.50;99.90;;;;;;4948952;28;20054;-78
2022/05/26 13:21:58;;;;;;;5.33;1.30;;;20.60;99.90;;;;;;4942209;28;20039;-78
2022/05/26 13:24:30;;;;;;;10.87;1.27;;;20.50;97.70;;;;;;4973344;28;20030;-78
2022/05/26 13:26:58;;;;;;;6.17;1.40;;;20.30;97.20;;;;;;4973864;28;20073;-80
2022/05/26 13:29:26;;;;;;;5.77;1.30;;;20.00;98.30;;;;;;4932452;28;20146;-79
2022/05/26 13:34:45;;;;;;;6.80;1.37;;;19.70;98.00;;;;;;4978281;28;20058;-80
2022/05/26 13:37:15;;;;;;;;;;;19.60;98.20;;;;;;4955251;28;20115;-80
2022/05/26 13:39:43;;;;;;;9.67;1.80;;;19.40;98.60;;;;;;4956431;28;19946;-79